Bagley, Minnesota
Current Conditions -  °F | °C
As of 12:15 PM on Thursday 18 Dec 2014 (Local Time) from KFSE Reporting Station
Clear Clear  
Wind Chill:   Ceiling: Unl
Heat Index: 18°   Visibility: 10mi
Dew Point: 12°   Wind: 9mph
Humidity: 79%   Direction: 180°S
Pressure: 30.22"   Gusts: NA
Location:  47.52°N, 95.4°W
Report Text: KFSE 181815Z AUTO 18008KT 10SM CLR M08/M11 A3022 RMK AO2
Loading
Personal Weather Stations






























Interactive Weather Map New forecast layout! Learn more

10-Day Weather Forecast

Advertisements
Track Severe Weather on mobile